Time;durP1;ratioP1;P1;durP2;ratioP2;P2;SDS_P1;SDS_P2;PMS_P1;PMS_P2;Temp;Humidity;BMP_temperature;BMP_pressure;BME280_temperature;BME280_humidity;BME280_pressure;Samples;Min_cycle;Max_cycle;Signal;HPM_P1;HPM_P2
2024/01/04 00:01:27;;;;;;;2.63;0.90;;;7.20;99.90;;;;;;5073383;28;20185;-68
2024/01/04 00:03:53;;;;;;;3.50;2.40;;;7.10;99.90;;;;;;5073565;28;20519;-68
2024/01/04 00:06:20;;;;;;;4.30;1.37;;;7.10;99.90;;;;;;5073316;28;20538;-68
2024/01/04 00:08:48;;;;;;;4.33;1.23;;;7.10;99.90;;;;;;5073461;28;20212;-68
2024/01/04 00:11:14;;;;;;;2.00;0.90;;;7.10;99.90;;;;;;5073171;28;20458;-69
2024/01/04 00:13:39;;;;;;;2.37;1.47;;;7.10;99.90;;;;;;5073294;28;20419;-69
2024/01/04 00:16:11;;;;;;;8.90;1.20;;;7.00;99.90;;;;;;5073171;28;20508;-69
2024/01/04 00:18:37;;;;;;;7.13;1.20;;;6.90;99.90;;;;;;5072766;28;20848;-68
2024/01/04 00:21:03;;;;;;;2.67;1.13;;;7.00;99.90;;;;;;5073032;28;20419;-68
2024/01/04 00:23:31;;;;;;;1.90;0.97;;;7.00;99.90;;;;;;5072996;28;20423;-69
2024/01/04 00:25:57;;;;;;;5.67;1.40;;;7.00;99.90;;;;;;5073048;28;20218;-69
2024/01/04 00:28:22;;;;;;;2.67;1.00;;;7.00;99.90;;;;;;5072621;28;20443;-69
2024/01/04 00:30:48;;;;;;;5.07;1.67;;;7.00;99.90;;;;;;5072798;28;20173;-68
2024/01/04 00:33:13;;;;;;;3.97;0.80;;;7.00;99.90;;;;;;5072835;28;20193;-68
2024/01/04 00:35:39;;;;;;;4.50;0.90;;;7.00;99.90;;;;;;5072972;28;20165;-68
2024/01/04 00:38:04;;;;;;;4.40;1.20;;;7.00;99.90;;;;;;5071955;28;20189;-68
2024/01/04 00:40:30;;;;;;;4.90;1.33;;;7.00;99.90;;;;;;5072742;28;20165;-69
2024/01/04 00:42:57;;;;;;;4.80;1.80;;;7.00;99.90;;;;;;5072712;28;20176;-68
2024/01/04 00:45:22;;;;;;;6.13;1.53;;;7.00;99.90;;;;;;5072677;28;20165;-69
2024/01/04 00:47:48;;;;;;;2.40;0.80;;;7.00;99.90;;;;;;5072243;28;20431;-69
2024/01/04 00:50:14;;;;;;;2.03;1.10;;;6.90;99.90;;;;;;5072587;28;20242;-69
2024/01/04 00:52:39;;;;;;;2.63;0.90;;;7.00;99.90;;;;;;5072472;28;20283;-69
2024/01/04 00:55:05;;;;;;;6.37;1.00;;;7.00;99.90;;;;;;5072591;28;20532;-69
2024/01/04 00:57:31;;;;;;;8.00;1.20;;;6.90;99.90;;;;;;5072066;28;20200;-69
2024/01/04 00:59:56;;;;;;;3.30;1.30;;;6.90;99.90;;;;;;5072316;28;20419;-69
2024/01/04 01:02:22;;;;;;;3.63;1.20;;;6.90;99.90;;;;;;5072302;28;20588;-69
2024/01/04 01:04:47;;;;;;;2.10;0.80;;;6.90;99.90;;;;;;5072319;28;20176;-69
2024/01/04 01:07:13;;;;;;;3.83;1.83;;;6.90;99.90;;;;;;5071779;28;20208;-69
2024/01/04 01:09:38;;;;;;;5.03;1.60;;;6.80;99.90;;;;;;5072332;28;20185;-69
2024/01/04 01:12:04;;;;;;;3.80;1.30;;;6.90;99.90;;;;;;5072130;28;20197;-68
2024/01/04 01:14:29;;;;;;;1.10;1.00;;;6.90;99.90;;;;;;5072195;28;20687;-69
2024/01/04 01:16:55;;;;;;;4.93;1.40;;;6.90;99.90;;;;;;5071810;28;20201;-68
2024/01/04 01:19:20;;;;;;;3.23;1.00;;;6.80;99.90;;;;;;5072155;28;20165;-68
2024/01/04 01:21:46;;;;;;;3.03;1.33;;;6.80;99.90;;;;;;5072135;28;20566;-69
2024/01/04 01:24:11;;;;;;;2.97;1.40;;;6.80;99.90;;;;;;5072105;28;20657;-69
2024/01/04 01:26:37;;;;;;;3.30;0.80;;;6.80;99.90;;;;;;5071684;28;20173;-69
2024/01/04 01:29:03;;;;;;;4.13;1.20;;;6.80;99.90;;;;;;5071985;28;20188;-69
2024/01/04 01:31:28;;;;;;;1.83;0.70;;;6.80;99.90;;;;;;5071972;28;20216;-69
2024/01/04 01:33:54;;;;;;;1.53;0.80;;;6.80;99.90;;;;;;5072007;28;20255;-68
2024/01/04 01:36:19;;;;;;;2.30;0.80;;;6.80;99.90;;;;;;5071901;28;20547;-69
2024/01/04 01:38:46;;;;;;;2.20;1.00;;;6.80;99.90;;;;;;5071710;28;20196;-68
2024/01/04 01:41:11;;;;;;;3.17;0.97;;;6.80;99.90;;;;;;5071890;28;20545;-69
2024/01/04 01:43:36;;;;;;;4.73;1.03;;;6.80;99.90;;;;;;5071964;28;20449;-69
2024/01/04 01:46:02;;;;;;;2.43;0.97;;;6.80;99.90;;;;;;5071818;28;20181;-69
2024/01/04 01:48:28;;;;;;;3.73;1.40;;;6.80;99.90;;;;;;5071556;28;20196;-69
2024/01/04 01:50:54;;;;;;;2.30;0.90;;;6.80;99.90;;;;;;5075790;28;20481;-68
2024/01/04 01:53:21;;;;;;;3.03;0.80;;;6.80;99.90;;;;;;5075869;28;20599;-69
2024/01/04 01:55:46;;;;;;;2.10;0.80;;;6.80;99.90;;;;;;5075801;28;20418;-69
2024/01/04 01:58:12;;;;;;;2.10;1.03;;;6.80;99.90;;;;;;5075401;28;20943;-69
2024/01/04 02:00:38;;;;;;;3.73;1.10;;;6.80;99.90;;;;;;5075798;28;20552;-69
2024/01/04 02:03:05;;;;;;;1.10;0.67;;;6.80;99.90;;;;;;5075876;28;20173;-70
2024/01/04 02:05:31;;;;;;;1.30;0.80;;;6.70;99.90;;;;;;5075683;28;20177;-69
2024/01/04 02:07:57;;;;;;;3.73;0.70;;;6.70;99.90;;;;;;5075198;28;20465;-70
2024/01/04 02:10:22;;;;;;;1.83;1.20;;;6.70;99.90;;;;;;5075661;28;20790;-69
2024/01/04 02:12:48;;;;;;;3.03;1.30;;;6.60;99.90;;;;;;5075692;28;20494;-69
2024/01/04 02:15:14;;;;;;;1.80;0.60;;;6.60;99.90;;;;;;5075511;28;20207;-69
2024/01/04 02:17:40;;;;;;;2.40;0.60;;;6.50;99.90;;;;;;5075128;28;20193;-69
2024/01/04 02:20:06;;;;;;;0.50;0.40;;;6.50;99.90;;;;;;5075451;28;20411;-69
2024/01/04 02:22:34;;;;;;;1.67;0.83;;;6.50;99.90;;;;;;5075300;28;20415;-69
2024/01/04 02:24:59;;;;;;;0.53;0.50;;;6.50;99.90;;;;;;5075230;28;20427;-69
2024/01/04 02:27:25;;;;;;;3.17;0.60;;;6.50;99.90;;;;;;5074943;28;20484;-69
2024/01/04 02:29:50;;;;;;;2.67;0.60;;;6.50;99.90;;;;;;5075213;28;20608;-68
2024/01/04 02:32:16;;;;;;;1.30;0.70;;;6.40;99.90;;;;;;5075315;28;20220;-70
2024/01/04 02:34:41;;;;;;;1.17;0.40;;;6.40;99.90;;;;;;5075182;28;20553;-69
2024/01/04 02:37:07;;;;;;;1.27;0.60;;;6.40;99.90;;;;;;5074805;28;20193;-70
2024/01/04 02:39:32;;;;;;;1.40;0.70;;;6.40;99.90;;;;;;5075144;28;20180;-69
2024/01/04 02:41:58;;;;;;;1.07;0.50;;;6.30;99.90;;;;;;5075030;28;20188;-69
2024/01/04 02:44:23;;;;;;;3.50;0.67;;;6.30;99.90;;;;;;5074885;28;20543;-69
2024/01/04 02:46:49;;;;;;;2.23;0.67;;;6.20;99.90;;;;;;5074619;28;20183;-69
2024/01/04 02:49:14;;;;;;;0.60;0.50;;;6.20;99.90;;;;;;5074772;28;20184;-69
2024/01/04 02:51:40;;;;;;;1.70;0.60;;;6.20;99.90;;;;;;5074724;28;20612;-70
2024/01/04 02:54:05;;;;;;;4.63;0.60;;;6.20;99.90;;;;;;5074604;28;20184;-69
2024/01/04 02:56:31;;;;;;;2.40;0.60;;;6.20;99.90;;;;;;5074438;28;20169;-70
2024/01/04 02:58:56;;;;;;;1.07;0.90;;;6.20;99.90;;;;;;5074553;28;20196;-69
2024/01/04 03:01:23;;;;;;;0.77;0.40;;;6.20;99.90;;;;;;5074320;28;20179;-69
2024/01/04 03:03:52;;;;;;;1.47;0.50;;;6.10;99.90;;;;;;5074565;28;20185;-69
2024/01/04 03:06:30;;;;;;;0.90;0.60;;;6.10;99.90;;;;;;5074446;28;20434;-69
2024/01/04 03:08:57;;;;;;;0.67;0.43;;;6.10;99.90;;;;;;5074489;28;20459;-69
2024/01/04 03:11:22;;;;;;;0.70;0.50;;;6.10;99.90;;;;;;5074366;28;20469;-69
2024/01/04 03:13:48;;;;;;;0.67;0.67;;;6.10;99.90;;;;;;5074662;28;20177;-69
2024/01/04 03:16:18;;;;;;;0.93;0.40;;;6.10;99.90;;;;;;5074199;28;20169;-69
2024/01/04 03:18:44;;;;;;;2.40;0.70;;;6.10;99.90;;;;;;5074123;28;20188;-69
2024/01/04 03:21:09;;;;;;;3.93;1.37;;;6.10;99.90;;;;;;5074173;28;20793;-69
2024/01/04 03:23:35;;;;;;;0.80;0.43;;;6.10;99.90;;;;;;5074261;28;20184;-69
2024/01/04 03:26:01;;;;;;;0.90;0.50;;;6.10;99.90;;;;;;5074134;28;20611;-68
2024/01/04 03:28:26;;;;;;;0.70;0.40;;;6.10;99.90;;;;;;5073828;28;20197;-69
2024/01/04 03:30:52;;;;;;;1.73;0.57;;;6.10;99.90;;;;;;5074023;28;20558;-69
2024/01/04 03:33:18;;;;;;;0.57;0.40;;;6.10;99.90;;;;;;5074130;28;20168;-69
2024/01/04 03:35:43;;;;;;;0.50;0.40;;;6.00;99.90;;;;;;5073994;28;20634;-69
2024/01/04 03:38:09;;;;;;;1.57;0.40;;;6.10;99.90;;;;;;5073683;28;20189;-70
2024/01/04 03:40:34;;;;;;;0.50;0.40;;;6.10;99.90;;;;;;5074000;28;20227;-69
2024/01/04 03:43:00;;;;;;;1.03;0.50;;;6.10;99.90;;;;;;5073914;28;20165;-69
2024/01/04 03:45:25;;;;;;;0.50;0.40;;;6.10;99.90;;;;;;5073835;28;20657;-69
2024/01/04 03:47:51;;;;;;;1.00;0.70;;;6.10;99.90;;;;;;5073416;28;20600;-68
2024/01/04 03:50:17;;;;;;;0.50;0.50;;;6.10;99.90;;;;;;5073626;28;20201;-70
2024/01/04 03:52:43;;;;;;;2.53;0.90;;;6.10;99.90;;;;;;5073626;28;20203;-69
2024/01/04 03:55:08;;;;;;;0.60;0.60;;;6.20;99.90;;;;;;5073868;28;20490;-69
2024/01/04 03:57:34;;;;;;;2.40;0.67;;;6.20;99.90;;;;;;5073164;28;20195;-69
2024/01/04 04:00:01;;;;;;;3.33;0.60;;;6.20;99.90;;;;;;5073475;28;20175;-69
2024/01/04 04:02:27;;;;;;;1.70;0.60;;;6.20;99.90;;;;;;5073534;28;20207;-69
2024/01/04 04:04:52;;;;;;;1.40;0.67;;;6.20;99.90;;;;;;5073305;28;20423;-69
2024/01/04 04:07:18;;;;;;;0.93;0.60;;;6.30;99.90;;;;;;5072841;28;20196;-70
2024/01/04 04:09:43;;;;;;;0.70;0.70;;;6.30;99.90;;;;;;5073296;28;20176;-69
2024/01/04 04:12:09;;;;;;;2.33;0.67;;;6.40;99.90;;;;;;5072366;28;20196;-69
2024/01/04 04:14:34;;;;;;;4.70;0.80;;;6.40;99.90;;;;;;5073235;28;20248;-69
2024/01/04 04:17:00;;;;;;;1.30;0.63;;;6.40;99.90;;;;;;5072858;28;20175;-69
2024/01/04 04:19:27;;;;;;;3.27;0.97;;;6.40;99.90;;;;;;5073086;28;20176;-69
2024/01/04 04:21:53;;;;;;;4.73;0.60;;;6.40;99.90;;;;;;5073060;28;20423;-69
2024/01/04 04:24:18;;;;;;;2.93;0.67;;;6.50;99.90;;;;;;5072974;28;20422;-69
2024/01/04 04:26:44;;;;;;;1.90;0.70;;;6.50;99.90;;;;;;5072582;28;20650;-69
2024/01/04 04:29:10;;;;;;;7.50;1.50;;;6.60;99.90;;;;;;5072930;28;20181;-69
2024/01/04 04:31:35;;;;;;;4.97;0.87;;;6.60;99.90;;;;;;5072697;28;20220;-69
2024/01/04 04:34:01;;;;;;;1.87;0.83;;;6.70;99.90;;;;;;5072691;28;20192;-69
2024/01/04 04:36:26;;;;;;;3.30;0.87;;;6.70;99.90;;;;;;5072562;28;20176;-69
2024/01/04 04:38:52;;;;;;;9.37;2.17;;;6.70;99.90;;;;;;5072703;28;20181;-69
2024/01/04 04:41:17;;;;;;;1.50;1.03;;;6.80;99.90;;;;;;5072698;28;20173;-70
2024/01/04 04:43:43;;;;;;;1.90;1.20;;;6.80;99.90;;;;;;5072655;28;20181;-69
2024/01/04 04:46:10;;;;;;;2.03;0.90;;;6.80;99.90;;;;;;5072573;28;20176;-69
2024/01/04 04:48:36;;;;;;;5.53;0.77;;;6.80;99.90;;;;;;5072228;28;20196;-69
2024/01/04 04:51:02;;;;;;;1.97;0.97;;;6.80;99.90;;;;;;5072447;28;20491;-70
2024/01/04 04:53:27;;;;;;;3.30;1.00;;;6.80;99.90;;;;;;5072476;28;20403;-69
2024/01/04 04:55:53;;;;;;;2.63;0.80;;;6.80;99.90;;;;;;5072415;28;20446;-69
2024/01/04 04:58:18;;;;;;;1.10;0.80;;;6.80;99.90;;;;;;5072066;28;20217;-69
2024/01/04 05:00:44;;;;;;;2.37;0.93;;;6.80;99.90;;;;;;5072330;28;20169;-69
2024/01/04 05:03:09;;;;;;;2.50;0.80;;;6.80;99.90;;;;;;5072275;28;20210;-69
2024/01/04 05:05:35;;;;;;;1.47;0.90;;;6.80;99.90;;;;;;5072387;28;20179;-69
2024/01/04 05:08:03;;;;;;;8.73;2.80;;;6.80;99.90;;;;;;5071737;28;20202;-69
2024/01/04 05:10:28;;;;;;;0.97;0.80;;;6.80;99.90;;;;;;5072240;28;20619;-69
2024/01/04 05:12:54;;;;;;;1.30;0.90;;;6.80;99.90;;;;;;5072234;28;20497;-69
2024/01/04 05:15:19;;;;;;;2.60;0.90;;;6.80;99.90;;;;;;5072215;28;20171;-69
2024/01/04 05:17:45;;;;;;;2.80;0.87;;;6.80;99.90;;;;;;5071690;28;20196;-70
2024/01/04 05:20:12;;;;;;;1.23;0.90;;;6.80;99.90;;;;;;5072359;28;20267;-69
2024/01/04 05:22:38;;;;;;;0.80;0.80;;;6.80;99.90;;;;;;5071999;28;20184;-69
2024/01/04 05:25:04;;;;;;;2.27;1.03;;;6.80;99.90;;;;;;5072321;28;20427;-69
2024/01/04 05:27:29;;;;;;;1.67;1.03;;;6.80;99.90;;;;;;5071734;28;20279;-70
2024/01/04 05:29:55;;;;;;;6.23;1.17;;;6.80;99.90;;;;;;5072279;28;20181;-68
2024/01/04 05:32:20;;;;;;;3.73;0.90;;;6.80;99.90;;;;;;5071956;28;20196;-69
2024/01/04 05:34:46;;;;;;;1.67;0.90;;;6.80;99.90;;;;;;5072133;28;20184;-69
2024/01/04 05:37:11;;;;;;;4.00;0.87;;;6.80;99.90;;;;;;5071649;28;20189;-69
2024/01/04 05:39:37;;;;;;;5.43;1.50;;;6.80;99.90;;;;;;5071956;28;20246;-69
2024/01/04 05:42:03;;;;;;;1.40;0.80;;;6.80;99.90;;;;;;5071893;28;20638;-69
2024/01/04 05:44:28;;;;;;;1.40;0.73;;;6.80;99.90;;;;;;5071960;28;20187;-70
2024/01/04 05:46:54;;;;;;;7.80;0.83;;;6.80;99.90;;;;;;5071562;28;20257;-68
2024/01/04 05:49:19;;;;;;;2.80;0.80;;;6.80;99.90;;;;;;5071844;28;20629;-69
2024/01/04 05:51:45;;;;;;;0.73;0.73;;;6.80;99.90;;;;;;5071815;28;20197;-69
2024/01/04 05:54:10;;;;;;;0.70;0.60;;;6.80;99.90;;;;;;5071722;28;20173;-69
2024/01/04 05:56:36;;;;;;;0.60;0.50;;;6.80;99.90;;;;;;5071608;28;20173;-69
2024/01/04 05:59:01;;;;;;;0.80;0.60;;;6.80;99.90;;;;;;5071707;28;20545;-69
2024/01/04 06:01:27;;;;;;;3.07;1.30;;;6.80;99.90;;;;;;5071687;28;20181;-69
2024/01/04 06:03:53;;;;;;;2.90;1.47;;;6.80;99.90;;;;;;5071634;28;20177;-69
2024/01/04 06:06:19;;;;;;;3.23;0.87;;;6.80;99.90;;;;;;5071632;28;20181;-69
2024/01/04 06:08:45;;;;;;;2.97;1.00;;;6.80;99.90;;;;;;5074264;22;20252;-66
2024/01/04 06:11:11;;;;;;;2.13;1.00;;;6.80;99.90;;;;;;5051441;28;20904;-67
2024/01/04 06:13:36;;;;;;;1.57;0.80;;;6.80;99.90;;;;;;5051547;28;20170;-67
2024/01/04 06:16:08;;;;;;;2.70;1.03;;;6.70;99.90;;;;;;5051522;28;20173;-68
2024/01/04 06:18:37;;;;;;;1.33;0.73;;;6.70;99.90;;;;;;5051263;28;21051;-67
2024/01/04 06:21:05;;;;;;;4.60;1.03;;;6.80;99.90;;;;;;5051492;28;20416;-67
2024/01/04 06:23:31;;;;;;;5.27;1.60;;;6.80;99.90;;;;;;5051423;28;20513;-67
2024/01/04 06:25:56;;;;;;;1.40;0.77;;;6.80;99.90;;;;;;5051526;28;20424;-66
2024/01/04 06:28:22;;;;;;;1.77;0.70;;;6.80;99.90;;;;;;5051174;28;20436;-67
2024/01/04 06:30:48;;;;;;;1.60;1.00;;;6.80;99.90;;;;;;5051308;28;20296;-67
2024/01/04 06:33:14;;;;;;;1.60;0.90;;;6.80;99.90;;;;;;5051484;28;20227;-67
2024/01/04 06:35:40;;;;;;;3.97;1.10;;;6.90;99.90;;;;;;5053124;28;20168;-67
2024/01/04 06:38:09;;;;;;;2.20;0.80;;;6.80;99.90;;;;;;5054636;28;20519;-66
2024/01/04 06:40:35;;;;;;;2.93;1.40;;;6.80;99.90;;;;;;5055022;28;20227;-67
2024/01/04 06:43:03;;;;;;;3.97;1.27;;;6.80;99.90;;;;;;5055196;28;20420;-67
2024/01/04 06:45:32;;;;;;;3.30;1.30;;;6.80;99.90;;;;;;5054877;28;20447;-67
2024/01/04 06:47:57;;;;;;;1.47;0.87;;;6.80;99.90;;;;;;5054551;28;20486;-67
2024/01/04 06:50:23;;;;;;;2.90;1.20;;;6.80;99.90;;;;;;5054743;28;20420;-67
2024/01/04 06:52:48;;;;;;;5.47;1.00;;;6.80;99.90;;;;;;5054748;28;20229;-66
2024/01/04 06:55:15;;;;;;;1.83;1.30;;;6.80;99.90;;;;;;5054731;28;20622;-67
2024/01/04 06:57:40;;;;;;;1.73;0.93;;;6.80;99.90;;;;;;5054363;28;20264;-68
2024/01/04 07:00:07;;;;;;;5.10;1.30;;;6.80;99.90;;;;;;5054668;28;20988;-68
2024/01/04 07:02:35;;;;;;;3.00;0.93;;;6.80;99.90;;;;;;5054496;28;20212;-67
2024/01/04 07:05:04;;;;;;;3.83;1.90;;;6.80;99.90;;;;;;5036678;28;20792;-67
2024/01/04 07:07:30;;;;;;;4.20;1.10;;;6.80;99.90;;;;;;5053965;28;20432;-67
2024/01/04 07:09:56;;;;;;;1.73;1.27;;;6.80;99.90;;;;;;5054505;28;20449;-67
2024/01/04 07:12:21;;;;;;;4.60;1.43;;;6.90;99.90;;;;;;5054583;28;20991;-67
2024/01/04 07:14:47;;;;;;;2.60;1.00;;;6.80;99.90;;;;;;5054397;28;20257;-67
2024/01/04 07:17:14;;;;;;;3.20;1.07;;;6.80;99.90;;;;;;5053959;28;20196;-67
2024/01/04 07:19:42;;;;;;;2.20;1.00;;;6.80;99.90;;;;;;5054307;28;20645;-67
2024/01/04 07:22:09;;;;;;;5.47;1.20;;;6.80;99.90;;;;;;5054101;28;20917;-67
2024/01/04 07:24:35;;;;;;;1.07;0.97;;;6.70;99.90;;;;;;5054335;28;20515;-67
2024/01/04 07:27:00;;;;;;;4.73;1.40;;;6.70;99.90;;;;;;5054063;28;20456;-68
2024/01/04 07:29:26;;;;;;;3.40;1.30;;;6.70;99.90;;;;;;5054043;28;20201;-67
2024/01/04 07:31:52;;;;;;;6.17;1.60;;;6.70;99.90;;;;;;5050837;28;20352;-67
2024/01/04 07:34:18;;;;;;;1.60;0.67;;;6.70;99.90;;;;;;5042304;28;20165;-67
2024/01/04 07:36:43;;;;;;;2.30;1.10;;;6.70;99.90;;;;;;5044096;28;20955;-67
2024/01/04 07:39:09;;;;;;;3.70;1.17;;;6.70;99.90;;;;;;5053780;28;20194;-67
2024/01/04 07:41:34;;;;;;;3.07;0.87;;;6.60;99.90;;;;;;5053689;28;20182;-67
2024/01/04 07:44:00;;;;;;;1.63;0.80;;;6.60;99.90;;;;;;5046577;28;20186;-67
2024/01/04 07:46:25;;;;;;;2.10;0.83;;;6.50;99.90;;;;;;5037866;28;20197;-68
2024/01/04 07:48:51;;;;;;;5.77;1.53;;;6.50;99.90;;;;;;5031979;28;20194;-67
2024/01/04 07:51:16;;;;;;;2.30;0.80;;;6.50;99.90;;;;;;5053261;28;20197;-68
2024/01/04 07:53:42;;;;;;;2.30;0.90;;;6.50;99.90;;;;;;5052342;28;20189;-68
2024/01/04 07:56:07;;;;;;;2.63;1.00;;;6.50;99.90;;;;;;5053121;28;20192;-68
2024/01/04 07:58:33;;;;;;;4.43;1.10;;;6.50;99.90;;;;;;5053078;28;20255;-67
2024/01/04 08:00:59;;;;;;;2.50;0.80;;;6.40;99.90;;;;;;5045997;28;20174;-68
2024/01/04 08:03:24;;;;;;;2.27;1.03;;;6.40;99.90;;;;;;5048349;28;20170;-68
2024/01/04 08:05:49;;;;;;;1.80;1.40;;;6.40;99.90;;;;;;5053254;28;20169;-69
2024/01/04 08:08:15;;;;;;;1.43;0.90;;;6.40;99.90;;;;;;5052755;28;20205;-70
2024/01/04 08:10:41;;;;;;;6.83;1.40;;;6.90;99.90;;;;;;5053262;28;20249;-68
2024/01/04 08:13:06;;;;;;;2.70;1.13;;;7.60;99.90;;;;;;5036225;28;20201;-69
2024/01/04 08:15:33;;;;;;;2.30;1.10;;;8.20;99.90;;;;;;5033059;28;20232;-68
2024/01/04 08:18:00;;;;;;;2.90;1.30;;;8.60;99.90;;;;;;5032737;28;20654;-69
2024/01/04 08:20:26;;;;;;;1.43;0.87;;;9.00;99.90;;;;;;5032955;28;20531;-68
2024/01/04 08:22:52;;;;;;;2.80;1.20;;;9.70;99.90;;;;;;5032779;28;20512;-68
2024/01/04 08:25:17;;;;;;;0.87;0.87;;;10.10;99.90;;;;;;5033049;28;20182;-69
2024/01/04 08:27:43;;;;;;;1.50;0.90;;;10.30;99.90;;;;;;5032607;28;20679;-68
2024/01/04 08:30:10;;;;;;;2.60;1.43;;;11.10;99.90;;;;;;5032973;28;20314;-68
2024/01/04 08:32:35;;;;;;;3.33;1.57;;;11.80;99.90;;;;;;5032891;28;20563;-69
2024/01/04 08:35:01;;;;;;;1.77;1.10;;;12.20;99.90;;;;;;5032793;28;20409;-68
2024/01/04 08:37:26;;;;;;;2.83;1.10;;;12.90;99.90;;;;;;5032313;28;20202;-68
2024/01/04 08:39:53;;;;;;;3.90;1.23;;;12.80;99.90;;;;;;5032715;28;20224;-68
2024/01/04 08:42:18;;;;;;;3.43;1.30;;;13.00;99.90;;;;;;5034569;28;20529;-68
2024/01/04 08:44:44;;;;;;;2.90;1.30;;;13.20;99.90;;;;;;5052529;28;20420;-67
2024/01/04 08:47:09;;;;;;;2.33;1.73;;;13.10;99.90;;;;;;5052142;28;20681;-69
2024/01/04 08:49:35;;;;;;;3.60;1.80;;;13.10;99.90;;;;;;5032993;28;20686;-68
2024/01/04 08:52:01;;;;;;;4.73;1.60;;;13.40;99.90;;;;;;5032080;28;20281;-68
2024/01/04 08:54:28;;;;;;;2.63;1.30;;;13.60;99.90;;;;;;5032424;28;20572;-67
2024/01/04 08:56:54;;;;;;;2.50;1.10;;;13.80;99.90;;;;;;5053880;28;20197;-68
2024/01/04 08:59:19;;;;;;;2.40;1.43;;;12.80;99.90;;;;;;5051825;28;20482;-67
2024/01/04 09:01:45;;;;;;;2.70;1.47;;;12.40;99.90;;;;;;5052849;28;20170;-68
2024/01/04 09:04:10;;;;;;;2.30;0.87;;;12.30;99.90;;;;;;5051484;28;20169;-67
2024/01/04 09:06:36;;;;;;;1.53;1.00;;;12.20;99.90;;;;;;5055672;28;20169;-67
2024/01/04 09:09:05;;;;;;;1.57;0.90;;;11.50;99.90;;;;;;5051804;28;20212;-67
2024/01/04 09:11:33;;;;;;;4.43;1.40;;;10.60;99.90;;;;;;5052006;28;20456;-67
2024/01/04 09:14:00;;;;;;;1.67;0.90;;;10.30;99.90;;;;;;5052091;28;20478;-67
2024/01/04 09:16:26;;;;;;;4.67;2.13;;;10.70;99.90;;;;;;5051603;28;20892;-67
2024/01/04 09:18:52;;;;;;;2.90;1.20;;;10.80;99.90;;;;;;5051863;28;20440;-67
2024/01/04 09:21:17;;;;;;;3.90;1.03;;;10.20;99.90;;;;;;5051810;28;20371;-67
2024/01/04 09:23:44;;;;;;;2.13;0.70;;;10.70;99.90;;;;;;5051142;28;20180;-68
2024/01/04 09:26:10;;;;;;;2.73;1.00;;;12.10;99.90;;;;;;5056851;28;20176;-68
2024/01/04 09:28:36;;;;;;;1.90;1.27;;;13.50;99.90;;;;;;5056910;28;20441;-67
2024/01/04 09:31:02;;;;;;;1.70;1.50;;;14.20;99.90;;;;;;5071908;28;20407;-68
2024/01/04 09:33:27;;;;;;;3.70;1.37;;;15.00;99.90;;;;;;5061303;28;20582;-68
2024/01/04 09:35:53;;;;;;;4.43;0.97;;;15.40;99.90;;;;;;5051696;28;20428;-68
2024/01/04 09:38:19;;;;;;;1.43;1.03;;;15.40;99.90;;;;;;5051373;28;20185;-68
2024/01/04 09:40:46;;;;;;;2.53;1.37;;;15.60;99.90;;;;;;5051609;28;20166;-68
2024/01/04 09:43:15;;;;;;;2.23;1.13;;;16.20;99.90;;;;;;5071969;28;20175;-68
2024/01/04 09:45:43;;;;;;;3.07;1.20;;;16.90;99.90;;;;;;5071843;28;20426;-67
2024/01/04 09:48:13;;;;;;;1.87;1.50;;;17.70;99.90;;;;;;5071277;28;20439;-68
2024/01/04 09:50:39;;;;;;;2.30;1.50;;;17.70;98.50;;;;;;5071417;28;20924;-68
2024/01/04 09:53:06;;;;;;;3.00;1.37;;;17.40;99.10;;;;;;5071581;28;20459;-67
2024/01/04 09:55:35;;;;;;;1.60;1.40;;;18.30;98.60;;;;;;5071612;28;20512;-67
2024/01/04 09:58:01;;;;;;;3.40;1.50;;;18.60;93.70;;;;;;5069542;28;20810;-67
2024/01/04 10:00:27;;;;;;;3.20;1.60;;;17.30;93.60;;;;;;5051546;28;20431;-67
2024/01/04 10:02:53;;;;;;;1.67;1.30;;;16.00;99.90;;;;;;5051485;28;20779;-67
2024/01/04 10:05:21;;;;;;;1.63;1.53;;;14.90;99.90;;;;;;5051571;28;20408;-68
2024/01/04 10:08:22;;;;;;;3.37;1.53;;;15.90;99.90;;;;;;5051041;28;20677;-67
2024/01/04 10:10:49;;;;;;;4.47;2.90;;;18.10;95.70;;;;;;5053485;28;20498;-67
2024/01/04 10:13:15;;;;;;;4.13;1.60;;;17.30;95.40;;;;;;5037326;28;20460;-67
2024/01/04 10:15:47;;;;;;;2.57;1.30;;;15.30;99.90;;;;;;5055450;28;20424;-66
2024/01/04 10:18:13;;;;;;;3.23;1.33;;;13.70;99.90;;;;;;5055024;28;20790;-67
2024/01/04 10:20:39;;;;;;;3.53;2.30;;;12.30;99.90;;;;;;5055265;28;20422;-66
2024/01/04 10:23:06;;;;;;;2.20;2.00;;;11.30;99.90;;;;;;5055125;28;20174;-66
2024/01/04 10:25:33;;;;;;;3.70;1.60;;;10.80;99.90;;;;;;5055250;28;20538;-67
2024/01/04 10:27:59;;;;;;;4.37;2.13;;;10.40;99.90;;;;;;5054810;28;20944;-66
2024/01/04 10:30:26;;;;;;;1.67;1.43;;;10.10;99.90;;;;;;5055104;28;20491;-67
2024/01/04 10:32:51;;;;;;;2.70;1.10;;;9.70;99.90;;;;;;5062385;28;20188;-66
2024/01/04 10:35:27;;;;;;;2.87;1.20;;;9.30;99.90;;;;;;5075101;28;20430;-66
2024/01/04 10:38:00;;;;;;;2.87;1.27;;;9.00;99.90;;;;;;5074738;28;20271;-66
2024/01/04 10:40:26;;;;;;;2.50;1.30;;;8.80;99.90;;;;;;5075017;28;20445;-67
2024/01/04 10:42:55;;;;;;;3.17;1.10;;;8.60;99.90;;;;;;5074902;28;20447;-66
2024/01/04 10:45:27;;;;;;;4.30;1.63;;;8.60;99.90;;;;;;5074838;28;20419;-66
2024/01/04 10:47:53;;;;;;;3.73;1.30;;;8.50;99.90;;;;;;5074376;28;20918;-66
2024/01/04 10:50:24;;;;;;;3.53;1.37;;;8.40;99.90;;;;;;5074801;28;20423;-66
2024/01/04 10:52:54;;;;;;;2.67;1.37;;;8.40;99.90;;;;;;5074506;28;20197;-67
2024/01/04 10:55:20;;;;;;;5.03;2.60;;;8.40;99.90;;;;;;5074580;28;20419;-66
2024/01/04 10:57:49;;;;;;;3.53;1.27;;;8.50;99.90;;;;;;5074782;28;20439;-65
2024/01/04 11:00:16;;;;;;;1.50;1.00;;;8.40;99.90;;;;;;5075090;28;20430;-65
2024/01/04 11:02:42;;;;;;;4.70;1.43;;;8.50;99.90;;;;;;5048620;28;20437;-66
2024/01/04 11:05:10;;;;;;;2.20;1.20;;;8.70;99.90;;;;;;5045908;28;20486;-66
2024/01/04 11:07:39;;;;;;;2.07;1.30;;;9.20;99.90;;;;;;5054725;28;20594;-65
2024/01/04 11:10:06;;;;;;;2.27;0.87;;;9.30;99.90;;;;;;5062177;28;20435;-66
2024/01/04 11:12:32;;;;;;;9.10;1.73;;;9.20;99.90;;;;;;5063393;28;20459;-65
2024/01/04 11:14:58;;;;;;;2.27;1.20;;;9.00;99.90;;;;;;5038363;28;20482;-66
2024/01/04 11:18:06;;;;;;;1.03;0.93;;;9.00;99.90;;;;;;5061846;28;20867;-66
2024/01/04 11:20:31;;;;;;;3.80;1.83;;;9.30;99.90;;;;;;5062823;28;20523;-65
2024/01/04 11:23:10;;;;;;;4.60;1.50;;;9.70;99.90;;;;;;5054081;28;20889;-66
2024/01/04 11:25:54;;;;;;;9.80;3.30;;;10.00;99.90;;;;;;5068620;28;20188;-66
2024/01/04 11:28:20;;;;;;;2.30;1.47;;;10.10;99.90;;;;;;5053567;28;20446;-66
2024/01/04 11:30:51;;;;;;;7.70;1.70;;;10.00;99.90;;;;;;5054169;28;20420;-65
2024/01/04 11:33:19;;;;;;;5.40;2.30;;;9.70;99.90;;;;;;5053847;28;20201;-66
2024/01/04 11:35:49;;;;;;;2.50;1.07;;;9.60;99.90;;;;;;5053492;28;20424;-65
2024/01/04 11:38:30;;;;;;;3.13;1.43;;;9.80;99.90;;;;;;5052510;28;20581;-66
2024/01/04 11:40:56;;;;;;;2.93;1.07;;;10.10;99.90;;;;;;5029851;28;20433;-66
2024/01/04 11:43:22;;;;;;;3.60;1.57;;;10.10;99.90;;;;;;5033720;28;20574;-66
2024/01/04 11:45:48;;;;;;;2.97;1.13;;;10.20;99.90;;;;;;5016053;28;20429;-66
2024/01/04 11:48:14;;;;;;;3.10;2.30;;;10.40;99.90;;;;;;5033463;28;20444;-66
2024/01/04 11:50:49;;;;;;;4.70;1.50;;;10.40;99.90;;;;;;5047747;28;20560;-66
2024/01/04 11:53:17;;;;;;;4.30;1.10;;;10.50;99.90;;;;;;5037205;28;20201;-65
2024/01/04 11:55:43;;;;;;;1.70;1.10;;;10.50;99.90;;;;;;5033452;28;20496;-66
2024/01/04 11:58:10;;;;;;;4.23;1.53;;;10.00;99.90;;;;;;5033229;28;20594;-66
2024/01/04 12:00:37;;;;;;;5.50;1.50;;;9.60;99.90;;;;;;5033370;28;20635;-65
2024/01/04 12:03:16;;;;;;;3.70;1.47;;;9.30;99.90;;;;;;5033591;28;20428;-66
2024/01/04 12:05:54;;;;;;;4.67;1.00;;;9.00;99.90;;;;;;5033361;28;20566;-66
2024/01/04 12:08:29;;;;;;;1.40;0.90;;;9.50;99.90;;;;;;5033348;28;20463;-66
2024/01/04 12:10:57;;;;;;;3.60;2.17;;;10.20;99.90;;;;;;5032823;28;20443;-66
2024/01/04 12:13:24;;;;;;;4.00;1.23;;;10.20;99.90;;;;;;5033301;28;20425;-66
2024/01/04 12:15:51;;;;;;;3.97;1.27;;;10.10;99.90;;;;;;5048523;28;20421;-66
2024/01/04 12:18:16;;;;;;;2.23;1.30;;;9.90;99.90;;;;;;5032683;28;20436;-66
2024/01/04 12:20:43;;;;;;;3.57;1.40;;;9.50;99.90;;;;;;5033073;28;20409;-68
2024/01/04 12:23:10;;;;;;;4.90;1.13;;;9.20;99.90;;;;;;5033053;28;20197;-67
2024/01/04 12:25:40;;;;;;;5.70;1.50;;;9.00;99.90;;;;;;5033057;28;20440;-68
2024/01/04 12:28:09;;;;;;;4.20;1.33;;;9.00;99.90;;;;;;5048269;28;20801;-68
2024/01/04 12:30:38;;;;;;;4.70;1.40;;;9.00;99.90;;;;;;5052651;28;20416;-68
2024/01/04 12:33:04;;;;;;;3.37;1.53;;;9.20;99.90;;;;;;5051945;28;20448;-66
2024/01/04 12:35:30;;;;;;;5.93;1.53;;;10.80;99.90;;;;;;5052857;28;20502;-66
2024/01/04 12:38:00;;;;;;;3.40;1.73;;;14.00;99.90;;;;;;5052299;28;20524;-66
2024/01/04 12:40:27;;;;;;;3.33;1.70;;;16.40;99.90;;;;;;5052541;28;20600;-66
2024/01/04 12:42:52;;;;;;;4.47;1.53;;;17.40;99.90;;;;;;5052587;28;20841;-66
2024/01/04 12:45:18;;;;;;;1.20;1.10;;;17.60;95.60;;;;;;5052327;28;20424;-66
2024/01/04 12:47:43;;;;;;;3.63;1.77;;;17.10;96.00;;;;;;5052158;28;20197;-66
2024/01/04 12:50:12;;;;;;;1.70;1.53;;;18.20;93.10;;;;;;5052504;28;20215;-66
2024/01/04 12:52:38;;;;;;;1.60;1.40;;;18.90;92.70;;;;;;5052316;28;20686;-66